LiveATC.Net - Listen to live air traffic control over the Internet! Contact LiveATC.net for advertising information


ICAO: KOGD  IATA: OGD   Airport: Ogden-Hinckley Airport
City: Ogden   State/Province: Utah
Country: United States   Continent: North America
KOGD METAR Weather: KOGD 282353Z AUTO 18012KT 10SM CLR 14/M06 A2982 RMK AO2 SLP076 T01441061 10172 20100 56021 TSNO
KOGD Flight Activity (FlightAware)
KOGD Airport Info   (AirNav) (iFlightPlanner)
KOGD Ogden Ground/Tower
Feed Status: DOWN
Last heard on: 2014-11-28 18:54:02 (0 days 5 hours 11 minutes ago)
FacilityFrequency
Ogden Ground121.700
Ogden Tower118.700


NOTICE

Unauthorized use prohibited. See LiveATC.net Terms of Service


Find LiveATC Audio Streams


Airport/ARTCC Code

Frequency
(e.g., 124.400, 128.75)
Site-wide search

Browse LiveATC Feeds
LiveATC Coverage Map
Top 50 LiveATC Feeds
Bad Weather Areas

LiveATC FAQ
Offer a LiveATC Feed
Contact LiveATC.net
Press Inquiries

LiveATC on iPhone
LiveATC on Android

LiveATC Mobile
(Mobile browser)

ATC Audio Archives
Interesting Recordings

LiveATC Forums


Home Page
About LiveATC.net
Make a Donation
LiveATC Bookstore

Terms of Use
Privacy Policy

ATC/Radar Sites
U.S. ARTCC Freqs
Canadian Air Freqs

AIRMETs/SIGMETs

FAA Airport Status
Nat'l Airspace Status
Arrival Demand Charts


Server Software By:
Icecast.org
Liquidsoap

Please make a donation to help us keep growing!